sensor_id;sensor_type;location;lat;lon;timestamp;temperature;humidity
59208;DHT22;44977;53.132;6.408;2024-03-07T00:03:13;5.30;99.90
59208;DHT22;44977;53.132;6.408;2024-03-07T00:08:13;5.30;99.90
59208;DHT22;44977;53.132;6.408;2024-03-07T00:13:14;5.20;99.90
59208;DHT22;44977;53.132;6.408;2024-03-07T00:18:15;5.10;99.90
59208;DHT22;44977;53.132;6.408;2024-03-07T00:23:15;5.10;99.90
59208;DHT22;44977;53.132;6.408;2024-03-07T00:28:17;5.00;99.90
59208;DHT22;44977;53.132;6.408;2024-03-07T00:33:17;5.00;99.90
59208;DHT22;44977;53.132;6.408;2024-03-07T00:38:22;5.00;99.90
59208;DHT22;44977;53.132;6.408;2024-03-07T00:43:23;4.90;99.90
59208;DHT22;44977;53.132;6.408;2024-03-07T00:48:24;4.90;99.90
59208;DHT22;44977;53.132;6.408;2024-03-07T00:53:25;4.80;99.90
59208;DHT22;44977;53.132;6.408;2024-03-07T00:58:26;4.80;99.90
59208;DHT22;44977;53.132;6.408;2024-03-07T01:03:28;4.80;99.90
59208;DHT22;44977;53.132;6.408;2024-03-07T01:08:28;4.70;99.90
59208;DHT22;44977;53.132;6.408;2024-03-07T01:13:32;4.70;99.90
59208;DHT22;44977;53.132;6.408;2024-03-07T01:18:34;4.70;99.90
59208;DHT22;44977;53.132;6.408;2024-03-07T01:23:35;4.70;99.90
59208;DHT22;44977;53.132;6.408;2024-03-07T01:28:36;4.60;99.90
59208;DHT22;44977;53.132;6.408;2024-03-07T01:33:36;4.60;99.90
59208;DHT22;44977;53.132;6.408;2024-03-07T01:38:37;4.50;99.90
59208;DHT22;44977;53.132;6.408;2024-03-07T01:43:38;4.50;99.90
59208;DHT22;44977;53.132;6.408;2024-03-07T01:48:39;4.50;99.90
59208;DHT22;44977;53.132;6.408;2024-03-07T01:53:40;4.40;99.90
59208;DHT22;44977;53.132;6.408;2024-03-07T01:58:42;4.40;99.90
59208;DHT22;44977;53.132;6.408;2024-03-07T02:03:43;4.30;99.90
59208;DHT22;44977;53.132;6.408;2024-03-07T02:08:44;4.30;99.90
59208;DHT22;44977;53.132;6.408;2024-03-07T02:13:44;4.20;99.90
59208;DHT22;44977;53.132;6.408;2024-03-07T02:18:46;4.20;99.90
59208;DHT22;44977;53.132;6.408;2024-03-07T02:23:47;4.10;99.90
59208;DHT22;44977;53.132;6.408;2024-03-07T02:28:48;4.10;99.90
59208;DHT22;44977;53.132;6.408;2024-03-07T02:33:49;4.10;99.90
59208;DHT22;44977;53.132;6.408;2024-03-07T02:38:50;4.00;99.90
59208;DHT22;44977;53.132;6.408;2024-03-07T02:43:50;4.00;99.90
59208;DHT22;44977;53.132;6.408;2024-03-07T02:48:51;3.90;99.90
59208;DHT22;44977;53.132;6.408;2024-03-07T02:53:52;3.90;99.90
59208;DHT22;44977;53.132;6.408;2024-03-07T02:58:53;3.80;99.90
59208;DHT22;44977;53.132;6.408;2024-03-07T03:03:53;3.80;99.90
59208;DHT22;44977;53.132;6.408;2024-03-07T03:08:54;3.70;99.90
59208;DHT22;44977;53.132;6.408;2024-03-07T03:13:55;3.70;99.90
59208;DHT22;44977;53.132;6.408;2024-03-07T03:18:56;3.60;99.90
59208;DHT22;44977;53.132;6.408;2024-03-07T03:23:58;3.60;99.90
59208;DHT22;44977;53.132;6.408;2024-03-07T03:28:58;3.50;99.90
59208;DHT22;44977;53.132;6.408;2024-03-07T03:33:59;3.50;99.90
59208;DHT22;44977;53.132;6.408;2024-03-07T03:39:00;3.50;99.90
59208;DHT22;44977;53.132;6.408;2024-03-07T03:44:01;3.40;99.90
59208;DHT22;44977;53.132;6.408;2024-03-07T03:49:04;3.30;99.90
59208;DHT22;44977;53.132;6.408;2024-03-07T03:54:06;3.30;99.90
59208;DHT22;44977;53.132;6.408;2024-03-07T03:59:07;3.30;99.90
59208;DHT22;44977;53.132;6.408;2024-03-07T04:04:08;3.20;99.90
59208;DHT22;44977;53.132;6.408;2024-03-07T04:09:09;3.20;99.90
59208;DHT22;44977;53.132;6.408;2024-03-07T04:14:10;3.10;99.90
59208;DHT22;44977;53.132;6.408;2024-03-07T04:19:11;3.10;99.90
59208;DHT22;44977;53.132;6.408;2024-03-07T04:24:12;3.00;99.90
59208;DHT22;44977;53.132;6.408;2024-03-07T04:29:13;3.00;99.90
59208;DHT22;44977;53.132;6.408;2024-03-07T04:34:13;3.00;99.90
59208;DHT22;44977;53.132;6.408;2024-03-07T04:39:14;2.90;99.90
59208;DHT22;44977;53.132;6.408;2024-03-07T04:44:25;2.90;99.90
59208;DHT22;44977;53.132;6.408;2024-03-07T04:49:27;2.80;99.90
59208;DHT22;44977;53.132;6.408;2024-03-07T04:54:30;2.80;99.90
59208;DHT22;44977;53.132;6.408;2024-03-07T04:59:34;2.70;99.90
59208;DHT22;44977;53.132;6.408;2024-03-07T05:04:35;2.80;99.90
59208;DHT22;44977;53.132;6.408;2024-03-07T05:09:36;2.80;99.90
59208;DHT22;44977;53.132;6.408;2024-03-07T05:14:37;2.70;99.90
59208;DHT22;44977;53.132;6.408;2024-03-07T05:19:37;2.60;99.90
59208;DHT22;44977;53.132;6.408;2024-03-07T05:24:38;2.60;99.90
59208;DHT22;44977;53.132;6.408;2024-03-07T05:29:39;2.70;99.90
59208;DHT22;44977;53.132;6.408;2024-03-07T05:34:40;2.60;99.90
59208;DHT22;44977;53.132;6.408;2024-03-07T05:39:41;2.50;99.90
59208;DHT22;44977;53.132;6.408;2024-03-07T05:44:45;2.60;99.90
59208;DHT22;44977;53.132;6.408;2024-03-07T05:49:45;2.60;99.90
59208;DHT22;44977;53.132;6.408;2024-03-07T05:54:46;2.60;99.90
59208;DHT22;44977;53.132;6.408;2024-03-07T05:59:47;2.50;99.90
59208;DHT22;44977;53.132;6.408;2024-03-07T06:04:48;2.40;99.90
59208;DHT22;44977;53.132;6.408;2024-03-07T06:09:48;2.40;99.90
59208;DHT22;44977;53.132;6.408;2024-03-07T06:14:50;2.50;99.90
59208;DHT22;44977;53.132;6.408;2024-03-07T06:19:51;2.40;99.90
59208;DHT22;44977;53.132;6.408;2024-03-07T06:24:52;2.30;99.90
59208;DHT22;44977;53.132;6.408;2024-03-07T06:29:53;2.30;99.90
59208;DHT22;44977;53.132;6.408;2024-03-07T06:34:53;2.40;99.90
59208;DHT22;44977;53.132;6.408;2024-03-07T06:39:54;2.30;99.90
59208;DHT22;44977;53.132;6.408;2024-03-07T06:44:55;2.40;99.90
59208;DHT22;44977;53.132;6.408;2024-03-07T06:49:55;2.30;99.90
59208;DHT22;44977;53.132;6.408;2024-03-07T06:54:56;2.40;99.90
59208;DHT22;44977;53.132;6.408;2024-03-07T06:59:57;2.40;99.90
59208;DHT22;44977;53.132;6.408;2024-03-07T07:04:57;2.30;99.90
59208;DHT22;44977;53.132;6.408;2024-03-07T07:09:58;2.40;99.90
59208;DHT22;44977;53.132;6.408;2024-03-07T07:14:59;2.40;99.90
59208;DHT22;44977;53.132;6.408;2024-03-07T07:20:00;2.40;99.90
59208;DHT22;44977;53.132;6.408;2024-03-07T07:25:00;2.40;99.90
59208;DHT22;44977;53.132;6.408;2024-03-07T07:30:01;2.60;99.90
59208;DHT22;44977;53.132;6.408;2024-03-07T07:35:02;2.50;99.90
59208;DHT22;44977;53.132;6.408;2024-03-07T07:40:03;2.40;99.90
59208;DHT22;44977;53.132;6.408;2024-03-07T07:45:09;2.30;99.90
59208;DHT22;44977;53.132;6.408;2024-03-07T07:50:15;2.40;99.90
59208;DHT22;44977;53.132;6.408;2024-03-07T07:55:18;2.50;99.90
59208;DHT22;44977;53.132;6.408;2024-03-07T08:00:23;2.50;99.90
59208;DHT22;44977;53.132;6.408;2024-03-07T08:05:29;2.40;99.90
59208;DHT22;44977;53.132;6.408;2024-03-07T08:10:30;2.50;99.90
59208;DHT22;44977;53.132;6.408;2024-03-07T08:15:31;2.60;99.90
59208;DHT22;44977;53.132;6.408;2024-03-07T08:20:32;2.60;99.90
59208;DHT22;44977;53.132;6.408;2024-03-07T08:25:33;2.70;99.90
59208;DHT22;44977;53.132;6.408;2024-03-07T08:30:34;2.50;99.90
59208;DHT22;44977;53.132;6.408;2024-03-07T08:35:35;2.50;99.90
59208;DHT22;44977;53.132;6.408;2024-03-07T08:40:36;2.50;99.90
59208;DHT22;44977;53.132;6.408;2024-03-07T08:45:36;2.70;99.90
59208;DHT22;44977;53.132;6.408;2024-03-07T08:50:37;2.70;99.90
59208;DHT22;44977;53.132;6.408;2024-03-07T08:55:38;2.70;99.90
59208;DHT22;44977;53.132;6.408;2024-03-07T09:00:39;2.60;99.90
59208;DHT22;44977;53.132;6.408;2024-03-07T09:05:39;2.70;99.90
59208;DHT22;44977;53.132;6.408;2024-03-07T09:10:40;2.80;99.90
59208;DHT22;44977;53.132;6.408;2024-03-07T09:15:41;2.70;99.90
59208;DHT22;44977;53.132;6.408;2024-03-07T09:20:42;2.60;99.90
59208;DHT22;44977;53.132;6.408;2024-03-07T09:25:43;2.70;99.90
59208;DHT22;44977;53.132;6.408;2024-03-07T09:30:43;2.80;99.90
59208;DHT22;44977;53.132;6.408;2024-03-07T09:35:45;2.70;99.90
59208;DHT22;44977;53.132;6.408;2024-03-07T09:40:47;2.90;99.90
59208;DHT22;44977;53.132;6.408;2024-03-07T09:45:47;2.80;99.90
59208;DHT22;44977;53.132;6.408;2024-03-07T09:50:50;2.80;99.90
59208;DHT22;44977;53.132;6.408;2024-03-07T09:55:54;2.80;99.90
59208;DHT22;44977;53.132;6.408;2024-03-07T10:00:55;2.90;99.90
59208;DHT22;44977;53.132;6.408;2024-03-07T10:05:56;3.00;99.90
59208;DHT22;44977;53.132;6.408;2024-03-07T10:10:57;3.00;99.90
59208;DHT22;44977;53.132;6.408;2024-03-07T10:15:59;3.00;99.90
59208;DHT22;44977;53.132;6.408;2024-03-07T10:21:03;3.00;99.90
59208;DHT22;44977;53.132;6.408;2024-03-07T10:26:04;3.10;99.90
59208;DHT22;44977;53.132;6.408;2024-03-07T10:31:05;3.00;99.90
59208;DHT22;44977;53.132;6.408;2024-03-07T10:36:11;3.10;99.90
59208;DHT22;44977;53.132;6.408;2024-03-07T10:41:14;3.10;99.90
59208;DHT22;44977;53.132;6.408;2024-03-07T10:46:17;3.20;99.90
59208;DHT22;44977;53.132;6.408;2024-03-07T10:51:32;3.20;99.90
59208;DHT22;44977;53.132;6.408;2024-03-07T11:06:50;3.50;99.90
59208;DHT22;44977;53.132;6.408;2024-03-07T11:11:51;3.60;99.90
59208;DHT22;44977;53.132;6.408;2024-03-07T11:16:53;3.70;99.90
59208;DHT22;44977;53.132;6.408;2024-03-07T11:21:54;3.80;99.90
59208;DHT22;44977;53.132;6.408;2024-03-07T11:26:57;3.90;99.90
59208;DHT22;44977;53.132;6.408;2024-03-07T11:31:58;3.90;99.90
59208;DHT22;44977;53.132;6.408;2024-03-07T11:36:59;4.10;99.90
59208;DHT22;44977;53.132;6.408;2024-03-07T11:42:00;4.20;99.90
59208;DHT22;44977;53.132;6.408;2024-03-07T11:47:07;4.50;99.90
59208;DHT22;44977;53.132;6.408;2024-03-07T11:52:11;4.60;99.90
59208;DHT22;44977;53.132;6.408;2024-03-07T11:57:18;4.40;99.90
59208;DHT22;44977;53.132;6.408;2024-03-07T12:02:33;4.50;99.90
59208;DHT22;44977;53.132;6.408;2024-03-07T12:07:33;4.70;99.90
59208;DHT22;44977;53.132;6.408;2024-03-07T12:12:34;4.90;99.90
59208;DHT22;44977;53.132;6.408;2024-03-07T12:17:44;4.90;99.90
59208;DHT22;44977;53.132;6.408;2024-03-07T12:22:46;5.10;99.90
59208;DHT22;44977;53.132;6.408;2024-03-07T12:28:02;5.10;99.90
59208;DHT22;44977;53.132;6.408;2024-03-07T12:33:03;5.10;99.90
59208;DHT22;44977;53.132;6.408;2024-03-07T12:38:08;5.40;99.90
59208;DHT22;44977;53.132;6.408;2024-03-07T12:48:46;5.30;99.90
59208;DHT22;44977;53.132;6.408;2024-03-07T12:53:47;5.60;99.90
59208;DHT22;44977;53.132;6.408;2024-03-07T12:58:48;5.80;99.90
59208;DHT22;44977;53.132;6.408;2024-03-07T13:03:52;5.60;99.90
59208;DHT22;44977;53.132;6.408;2024-03-07T13:08:54;5.90;99.90
59208;DHT22;44977;53.132;6.408;2024-03-07T13:13:54;5.70;99.90
59208;DHT22;44977;53.132;6.408;2024-03-07T13:18:55;5.90;99.90
59208;DHT22;44977;53.132;6.408;2024-03-07T13:23:56;6.00;99.90
59208;DHT22;44977;53.132;6.408;2024-03-07T13:28:58;5.90;99.90
59208;DHT22;44977;53.132;6.408;2024-03-07T13:34:02;6.00;99.90
59208;DHT22;44977;53.132;6.408;2024-03-07T13:39:02;6.00;99.90
59208;DHT22;44977;53.132;6.408;2024-03-07T13:44:04;6.00;99.90
59208;DHT22;44977;53.132;6.408;2024-03-07T13:49:11;5.90;99.90
59208;DHT22;44977;53.132;6.408;2024-03-07T13:54:18;6.20;99.90
59208;DHT22;44977;53.132;6.408;2024-03-07T14:05:20;6.00;99.90
59208;DHT22;44977;53.132;6.408;2024-03-07T14:31:51;6.50;99.90
59208;DHT22;44977;53.132;6.408;2024-03-07T14:36:56;6.50;99.90
59208;DHT22;44977;53.132;6.408;2024-03-07T14:41:58;6.50;99.90
59208;DHT22;44977;53.132;6.408;2024-03-07T14:47:04;6.40;99.90
59208;DHT22;44977;53.132;6.408;2024-03-07T14:52:08;6.50;99.90
59208;DHT22;44977;53.132;6.408;2024-03-07T14:57:11;6.50;99.90
59208;DHT22;44977;53.132;6.408;2024-03-07T15:02:13;6.50;99.90
59208;DHT22;44977;53.132;6.408;2024-03-07T15:07:14;6.50;99.90
59208;DHT22;44977;53.132;6.408;2024-03-07T15:12:15;6.60;99.90
59208;DHT22;44977;53.132;6.408;2024-03-07T15:17:17;6.60;99.90
59208;DHT22;44977;53.132;6.408;2024-03-07T15:22:18;6.70;99.90
59208;DHT22;44977;53.132;6.408;2024-03-07T15:27:21;6.70;99.90
59208;DHT22;44977;53.132;6.408;2024-03-07T15:32:22;6.80;99.90
59208;DHT22;44977;53.132;6.408;2024-03-07T15:37:22;6.80;99.90
59208;DHT22;44977;53.132;6.408;2024-03-07T15:42:23;6.80;99.90
59208;DHT22;44977;53.132;6.408;2024-03-07T15:47:25;6.80;99.90
59208;DHT22;44977;53.132;6.408;2024-03-07T15:52:26;6.90;99.90
59208;DHT22;44977;53.132;6.408;2024-03-07T15:57:27;6.80;99.90
59208;DHT22;44977;53.132;6.408;2024-03-07T16:02:27;6.90;99.90
59208;DHT22;44977;53.132;6.408;2024-03-07T16:07:28;6.90;99.90
59208;DHT22;44977;53.132;6.408;2024-03-07T16:12:29;6.90;99.90
59208;DHT22;44977;53.132;6.408;2024-03-07T16:17:33;6.90;99.90
59208;DHT22;44977;53.132;6.408;2024-03-07T16:22:40;7.00;99.90
59208;DHT22;44977;53.132;6.408;2024-03-07T16:27:43;6.90;99.90
59208;DHT22;44977;53.132;6.408;2024-03-07T16:32:49;6.90;99.90
59208;DHT22;44977;53.132;6.408;2024-03-07T16:37:50;6.90;99.90
59208;DHT22;44977;53.132;6.408;2024-03-07T16:42:53;6.80;99.90
59208;DHT22;44977;53.132;6.408;2024-03-07T16:47:59;6.60;99.90
59208;DHT22;44977;53.132;6.408;2024-03-07T16:53:01;6.60;99.90
59208;DHT22;44977;53.132;6.408;2024-03-07T16:58:06;6.70;99.90
59208;DHT22;44977;53.132;6.408;2024-03-07T17:03:12;6.60;99.90
59208;DHT22;44977;53.132;6.408;2024-03-07T17:08:13;6.60;99.90
59208;DHT22;44977;53.132;6.408;2024-03-07T17:13:16;6.30;99.90
59208;DHT22;44977;53.132;6.408;2024-03-07T17:18:17;6.40;99.90
59208;DHT22;44977;53.132;6.408;2024-03-07T17:23:18;6.40;99.90
59208;DHT22;44977;53.132;6.408;2024-03-07T17:28:18;6.30;99.90
59208;DHT22;44977;53.132;6.408;2024-03-07T17:33:21;6.20;99.90
59208;DHT22;44977;53.132;6.408;2024-03-07T17:38:25;6.30;99.90
59208;DHT22;44977;53.132;6.408;2024-03-07T17:43:27;6.10;99.90
59208;DHT22;44977;53.132;6.408;2024-03-07T17:48:28;6.00;99.90
59208;DHT22;44977;53.132;6.408;2024-03-07T17:53:28;6.00;99.90
59208;DHT22;44977;53.132;6.408;2024-03-07T17:58:29;5.90;99.90
59208;DHT22;44977;53.132;6.408;2024-03-07T18:03:32;5.70;99.90
59208;DHT22;44977;53.132;6.408;2024-03-07T18:08:33;5.70;99.90
59208;DHT22;44977;53.132;6.408;2024-03-07T18:13:35;5.70;99.90
59208;DHT22;44977;53.132;6.408;2024-03-07T18:18:38;5.50;99.90
59208;DHT22;44977;53.132;6.408;2024-03-07T18:23:39;5.40;99.90
59208;DHT22;44977;53.132;6.408;2024-03-07T18:28:40;5.50;99.90
59208;DHT22;44977;53.132;6.408;2024-03-07T18:33:44;5.40;99.90
59208;DHT22;44977;53.132;6.408;2024-03-07T18:38:45;5.40;99.90
59208;DHT22;44977;53.132;6.408;2024-03-07T18:43:47;5.30;99.90
59208;DHT22;44977;53.132;6.408;2024-03-07T18:48:47;5.30;99.90
59208;DHT22;44977;53.132;6.408;2024-03-07T18:53:48;5.20;99.90
59208;DHT22;44977;53.132;6.408;2024-03-07T18:58:49;5.10;99.90
59208;DHT22;44977;53.132;6.408;2024-03-07T19:03:50;4.90;99.90
59208;DHT22;44977;53.132;6.408;2024-03-07T19:08:51;5.10;99.90
59208;DHT22;44977;53.132;6.408;2024-03-07T19:13:52;5.00;99.90
59208;DHT22;44977;53.132;6.408;2024-03-07T19:18:53;4.70;99.90
59208;DHT22;44977;53.132;6.408;2024-03-07T19:23:54;4.60;99.90
59208;DHT22;44977;53.132;6.408;2024-03-07T19:28:55;4.80;99.90
59208;DHT22;44977;53.132;6.408;2024-03-07T19:33:56;4.70;99.90
59208;DHT22;44977;53.132;6.408;2024-03-07T19:38:57;4.60;99.90
59208;DHT22;44977;53.132;6.408;2024-03-07T19:43:57;4.60;99.90
59208;DHT22;44977;53.132;6.408;2024-03-07T19:48:58;4.20;99.90
59208;DHT22;44977;53.132;6.408;2024-03-07T19:53:59;4.40;99.90
59208;DHT22;44977;53.132;6.408;2024-03-07T19:58:59;4.30;99.90
59208;DHT22;44977;53.132;6.408;2024-03-07T20:04:00;4.30;99.90
59208;DHT22;44977;53.132;6.408;2024-03-07T20:09:01;4.30;99.90
59208;DHT22;44977;53.132;6.408;2024-03-07T20:14:04;4.20;99.90
59208;DHT22;44977;53.132;6.408;2024-03-07T20:19:05;4.20;99.90
59208;DHT22;44977;53.132;6.408;2024-03-07T20:24:07;3.90;99.90
59208;DHT22;44977;53.132;6.408;2024-03-07T20:29:08;4.10;99.90
59208;DHT22;44977;53.132;6.408;2024-03-07T20:34:09;4.00;99.90
59208;DHT22;44977;53.132;6.408;2024-03-07T20:39:10;3.90;99.90
59208;DHT22;44977;53.132;6.408;2024-03-07T20:44:12;4.00;99.90
59208;DHT22;44977;53.132;6.408;2024-03-07T20:49:12;4.00;99.90
59208;DHT22;44977;53.132;6.408;2024-03-07T20:54:16;3.90;99.90
59208;DHT22;44977;53.132;6.408;2024-03-07T20:59:21;3.80;99.90
59208;DHT22;44977;53.132;6.408;2024-03-07T21:04:21;3.80;99.90
59208;DHT22;44977;53.132;6.408;2024-03-07T21:09:24;3.80;99.90
59208;DHT22;44977;53.132;6.408;2024-03-07T21:14:24;3.70;99.90
59208;DHT22;44977;53.132;6.408;2024-03-07T21:19:26;3.70;99.90
59208;DHT22;44977;53.132;6.408;2024-03-07T21:24:27;3.60;99.90
59208;DHT22;44977;53.132;6.408;2024-03-07T21:29:27;3.70;99.90
59208;DHT22;44977;53.132;6.408;2024-03-07T21:34:30;3.50;99.90
59208;DHT22;44977;53.132;6.408;2024-03-07T21:39:31;3.60;99.90
59208;DHT22;44977;53.132;6.408;2024-03-07T21:44:32;3.60;99.90
59208;DHT22;44977;53.132;6.408;2024-03-07T21:49:33;3.70;99.90
59208;DHT22;44977;53.132;6.408;2024-03-07T21:54:37;3.60;99.90
59208;DHT22;44977;53.132;6.408;2024-03-07T21:59:38;3.70;99.90
59208;DHT22;44977;53.132;6.408;2024-03-07T22:04:39;3.60;99.90
59208;DHT22;44977;53.132;6.408;2024-03-07T22:09:42;3.50;99.90
59208;DHT22;44977;53.132;6.408;2024-03-07T22:14:46;3.60;99.90
59208;DHT22;44977;53.132;6.408;2024-03-07T22:19:47;3.40;99.90
59208;DHT22;44977;53.132;6.408;2024-03-07T22:24:48;3.60;99.90
59208;DHT22;44977;53.132;6.408;2024-03-07T22:29:49;3.50;99.90
59208;DHT22;44977;53.132;6.408;2024-03-07T22:34:53;3.40;99.90
59208;DHT22;44977;53.132;6.408;2024-03-07T22:40:21;3.40;99.90
59208;DHT22;44977;53.132;6.408;2024-03-07T22:45:23;3.50;99.90
59208;DHT22;44977;53.132;6.408;2024-03-07T22:50:26;3.40;99.90
59208;DHT22;44977;53.132;6.408;2024-03-07T22:55:27;3.20;99.90
59208;DHT22;44977;53.132;6.408;2024-03-07T23:00:28;3.20;99.90
59208;DHT22;44977;53.132;6.408;2024-03-07T23:05:34;3.20;99.90
59208;DHT22;44977;53.132;6.408;2024-03-07T23:10:41;3.10;99.90
59208;DHT22;44977;53.132;6.408;2024-03-07T23:15:44;3.20;99.90
59208;DHT22;44977;53.132;6.408;2024-03-07T23:20:45;3.10;99.90
59208;DHT22;44977;53.132;6.408;2024-03-07T23:25:46;3.00;99.90
59208;DHT22;44977;53.132;6.408;2024-03-07T23:30:47;2.90;99.90
59208;DHT22;44977;53.132;6.408;2024-03-07T23:35:48;2.70;99.90
59208;DHT22;44977;53.132;6.408;2024-03-07T23:40:49;2.90;99.90
59208;DHT22;44977;53.132;6.408;2024-03-07T23:45:50;2.80;99.90
59208;DHT22;44977;53.132;6.408;2024-03-07T23:50:51;2.80;99.90
59208;DHT22;44977;53.132;6.408;2024-03-07T23:55:52;2.80;99.90
